createdAt,value
2019-06-15T00:00:09.051Z,95.60
2019-06-15T00:01:09.031Z,94.35
2019-06-15T00:02:08.989Z,94.31
2019-06-15T00:03:08.977Z,95.03
2019-06-15T00:04:08.934Z,95.41
2019-06-15T00:05:08.930Z,95.50
2019-06-15T00:06:08.924Z,95.60
2019-06-15T00:07:08.976Z,95.79
2019-06-15T00:08:08.909Z,95.12
2019-06-15T00:09:08.772Z,94.64
2019-06-15T00:10:08.748Z,94.74
2019-06-15T00:11:08.735Z,94.74
2019-06-15T00:12:08.664Z,94.54
2019-06-15T00:13:08.645Z,94.07
2019-06-15T00:14:08.629Z,93.39
2019-06-15T00:15:08.602Z,93.20
2019-06-15T00:16:08.596Z,93.01
2019-06-15T00:17:08.514Z,92.91
2019-06-15T00:18:08.466Z,92.43
2019-06-15T00:19:08.437Z,93.01
2019-06-15T00:20:08.527Z,92.72
2019-06-15T00:21:08.376Z,92.82
2019-06-15T00:22:08.340Z,92.72
2019-06-15T00:23:08.331Z,92.63
2019-06-15T00:24:08.277Z,93.30
2019-06-15T00:25:08.247Z,93.68
2019-06-15T00:26:08.213Z,93.15
2019-06-15T00:27:08.180Z,93.44
2019-06-15T00:28:08.152Z,93.54
2019-06-15T00:29:08.123Z,92.68
2019-06-15T00:30:08.086Z,92.39
2019-06-15T00:31:08.075Z,92.58
2019-06-15T00:32:08.012Z,92.86
2019-06-15T00:33:07.994Z,92.68
2019-06-15T00:34:07.956Z,94.02
2019-06-15T00:35:07.959Z,93.35
2019-06-15T00:36:07.911Z,92.68
2019-06-15T00:37:07.885Z,92.96
2019-06-15T00:38:07.894Z,93.63
2019-06-15T00:39:07.807Z,93.35
2019-06-15T00:40:07.790Z,93.54
2019-06-15T00:41:07.782Z,92.86
2019-06-15T00:42:11.796Z,93.44
2019-06-15T00:43:16.465Z,92.96
2019-06-15T00:44:10.581Z,93.82
2019-06-15T00:45:07.787Z,93.82
2019-06-15T00:46:08.495Z,94.31
2019-06-15T00:47:09.344Z,93.54
2019-06-15T00:48:09.155Z,92.68
2019-06-15T00:49:08.132Z,93.35
2019-06-15T00:50:07.934Z,93.21
2019-06-15T00:51:08.067Z,93.49
2019-06-15T00:52:08.843Z,92.68
2019-06-15T00:53:09.439Z,93.25
2019-06-15T00:54:10.986Z,93.11
2019-06-15T00:55:12.532Z,92.54
2019-06-15T00:56:10.017Z,92.29
2019-06-15T00:57:09.310Z,91.81
2019-06-15T00:58:07.240Z,92.29
2019-06-15T00:59:07.146Z,92.19
2019-06-15T01:00:07.169Z,92.10
2019-06-15T01:01:07.097Z,92.86
2019-06-15T01:02:07.050Z,92.77
2019-06-15T01:03:07.026Z,92.44
2019-06-15T01:04:06.978Z,92.54
2019-06-15T01:05:06.939Z,92.72
2019-06-15T01:06:06.919Z,92.05
2019-06-15T01:07:06.881Z,92.00
2019-06-15T01:08:06.865Z,92.77
2019-06-15T01:09:06.825Z,92.82
2019-06-15T01:10:06.791Z,92.63
2019-06-15T01:11:06.781Z,92.24
2019-06-15T01:12:06.731Z,92.82
2019-06-15T01:13:06.684Z,92.63
2019-06-15T01:14:06.649Z,92.54
2019-06-15T01:15:06.624Z,92.15
2019-06-15T01:16:06.584Z,92.15
2019-06-15T01:17:06.556Z,92.72
2019-06-15T01:18:06.542Z,92.82
2019-06-15T01:19:06.520Z,92.54
2019-06-15T01:20:06.483Z,92.15
2019-06-15T01:21:06.439Z,92.05
2019-06-15T01:22:06.426Z,92.82
2019-06-15T01:23:06.390Z,92.82
2019-06-15T01:24:06.371Z,92.72
2019-06-15T01:25:06.315Z,92.72
2019-06-15T01:26:06.259Z,92.72
2019-06-15T01:27:06.247Z,92.91
2019-06-15T01:28:06.234Z,93.40
2019-06-15T01:29:06.222Z,93.01
2019-06-15T01:30:06.176Z,93.59
2019-06-15T01:31:06.096Z,93.30
2019-06-15T01:32:06.136Z,92.34
2019-06-15T01:33:06.046Z,92.91
2019-06-15T01:34:06.052Z,93.21
2019-06-15T01:35:05.973Z,93.59
2019-06-15T01:36:05.929Z,93.30
2019-06-15T01:37:05.892Z,93.78
2019-06-15T01:38:05.859Z,93.73
2019-06-15T01:39:05.835Z,93.59
2019-06-15T01:40:05.809Z,93.59
2019-06-15T01:41:05.768Z,93.68
2019-06-15T01:42:05.747Z,94.69
2019-06-15T01:43:05.717Z,94.02
2019-06-15T01:44:05.666Z,93.78
2019-06-15T01:45:05.646Z,93.68
2019-06-15T01:46:05.603Z,93.30
2019-06-15T01:47:05.578Z,93.68
2019-06-15T01:48:05.533Z,93.11
2019-06-15T01:49:05.520Z,93.59
2019-06-15T01:50:05.501Z,93.59
2019-06-15T01:51:05.456Z,93.88
2019-06-15T01:52:05.427Z,93.21
2019-06-15T01:53:05.407Z,93.49
2019-06-15T01:54:05.406Z,93.68
2019-06-15T01:55:17.456Z,93.21
2019-06-15T01:56:05.286Z,93.40
2019-06-15T01:57:05.241Z,93.97
2019-06-15T01:58:05.235Z,93.49
2019-06-15T01:59:05.207Z,93.73
2019-06-15T02:00:05.158Z,94.69
2019-06-15T02:01:05.157Z,95.17
2019-06-15T02:02:05.069Z,95.26
2019-06-15T02:03:05.052Z,95.07
2019-06-15T02:04:05.091Z,95.46
2019-06-15T02:05:04.969Z,94.79
2019-06-15T02:06:04.934Z,94.40
2019-06-15T02:07:04.901Z,94.69
2019-06-15T02:08:04.873Z,94.79
2019-06-15T02:09:04.842Z,94.59
2019-06-15T02:10:04.806Z,94.89
2019-06-15T02:11:04.784Z,93.44
2019-06-15T02:12:04.736Z,93.73
2019-06-15T02:13:04.714Z,93.93
2019-06-15T02:14:04.673Z,94.89
2019-06-15T02:15:04.640Z,95.26
2019-06-15T02:16:04.611Z,96.13
2019-06-15T02:17:04.582Z,95.70
2019-06-15T02:18:04.544Z,94.55
2019-06-15T02:19:04.506Z,93.83
2019-06-15T02:20:04.520Z,93.26
2019-06-15T02:21:04.464Z,93.63
2019-06-15T02:22:04.428Z,94.12
2019-06-15T02:23:04.391Z,94.31
2019-06-15T02:24:04.380Z,94.02
2019-06-15T02:25:04.361Z,94.50
2019-06-15T02:26:04.324Z,93.93
2019-06-15T02:27:04.301Z,94.21
2019-06-15T02:28:04.240Z,94.84
2019-06-15T02:29:04.191Z,95.03
2019-06-15T02:30:04.174Z,95.51
2019-06-15T02:31:04.132Z,95.70
2019-06-15T02:32:04.082Z,95.60
2019-06-15T02:33:04.113Z,95.79
2019-06-15T02:34:04.080Z,95.51
2019-06-15T02:35:04.002Z,95.31
2019-06-15T02:36:03.953Z,94.55
2019-06-15T02:37:03.953Z,94.59
2019-06-15T02:38:03.898Z,93.88
2019-06-15T02:39:03.844Z,94.02
2019-06-15T02:40:03.806Z,93.93
2019-06-15T02:41:03.776Z,94.40
2019-06-15T02:42:03.738Z,93.93
2019-06-15T02:43:03.708Z,94.02
2019-06-15T02:44:03.673Z,94.31
2019-06-15T02:45:03.637Z,93.83
2019-06-15T02:46:03.609Z,93.93
2019-06-15T02:47:03.573Z,94.79
2019-06-15T02:48:03.539Z,95.65
2019-06-15T02:49:03.502Z,95.07
2019-06-15T02:50:03.475Z,95.36
2019-06-15T02:51:03.440Z,96.51
2019-06-15T02:52:03.400Z,96.94
2019-06-15T02:53:03.375Z,96.37
2019-06-15T02:54:03.348Z,96.27
2019-06-15T02:55:03.389Z,96.94
2019-06-15T02:56:03.283Z,96.66
2019-06-15T02:57:03.248Z,96.08
2019-06-15T02:58:03.211Z,94.84
2019-06-15T02:59:03.205Z,95.07
2019-06-15T03:00:03.162Z,94.79
2019-06-15T03:01:03.135Z,94.12
2019-06-15T03:02:03.135Z,94.59
2019-06-15T03:03:03.100Z,95.17
2019-06-15T03:04:03.032Z,95.89
2019-06-15T03:05:02.998Z,95.65
2019-06-15T03:06:02.975Z,95.36
2019-06-15T03:07:02.963Z,94.89
2019-06-15T03:08:02.917Z,94.59
2019-06-15T03:09:02.862Z,94.98
2019-06-15T03:10:02.809Z,94.21
2019-06-15T03:11:02.770Z,95.26
2019-06-15T03:12:02.737Z,95.94
2019-06-15T03:13:02.703Z,96.13
2019-06-15T03:14:02.670Z,95.84
2019-06-15T03:15:02.706Z,95.65
2019-06-15T03:16:02.604Z,95.65
2019-06-15T03:17:02.575Z,95.36
2019-06-15T03:18:02.531Z,95.46
2019-06-15T03:19:02.512Z,95.56
2019-06-15T03:20:02.613Z,96.22
2019-06-15T03:21:02.447Z,95.84
2019-06-15T03:22:02.413Z,96.03
2019-06-15T03:23:02.375Z,95.60
2019-06-15T03:24:02.336Z,95.89
2019-06-15T03:25:02.302Z,95.51
2019-06-15T03:26:05.840Z,95.60
2019-06-15T03:27:02.297Z,94.64
2019-06-15T03:28:02.244Z,94.84
2019-06-15T03:29:02.210Z,95.55
2019-06-15T03:30:02.195Z,95.51
2019-06-15T03:31:02.139Z,96.13
2019-06-15T03:32:02.100Z,95.75
2019-06-15T03:33:02.058Z,95.79
2019-06-15T03:34:02.031Z,96.18
2019-06-15T03:35:02.434Z,96.47
2019-06-15T03:36:01.972Z,96.08
2019-06-15T03:37:01.913Z,96.42
2019-06-15T03:38:01.899Z,96.51
2019-06-15T03:39:01.862Z,97.09
2019-06-15T03:40:01.846Z,96.61
2019-06-15T03:41:01.784Z,96.51
2019-06-15T03:42:01.748Z,96.51
2019-06-15T03:43:01.713Z,96.89
2019-06-15T03:44:01.716Z,97.28
2019-06-15T03:45:01.701Z,96.89
2019-06-15T03:46:01.604Z,96.89
2019-06-15T03:47:01.598Z,96.89
2019-06-15T03:48:01.534Z,96.99
2019-06-15T03:49:01.502Z,97.95
2019-06-15T03:50:01.480Z,97.76
2019-06-15T03:51:01.444Z,97.38
2019-06-15T03:52:01.405Z,97.56
2019-06-15T03:53:01.414Z,97.56
2019-06-15T03:54:01.343Z,98.62
2019-06-15T03:55:01.311Z,97.66
2019-06-15T03:56:01.279Z,97.95
2019-06-15T03:57:01.251Z,98.24
2019-06-15T03:58:01.216Z,98.14
2019-06-15T03:59:01.223Z,98.19
2019-06-15T04:00:01.154Z,98.48
2019-06-15T04:01:01.155Z,98.86
2019-06-15T04:02:01.118Z,99.05
2019-06-15T04:03:01.091Z,99.99
2019-06-15T04:04:01.027Z,98.86
2019-06-15T04:05:01.017Z,99.63
2019-06-15T04:06:00.978Z,99.34
2019-06-15T04:07:00.963Z,99.10
2019-06-15T04:08:00.902Z,98.34
2019-06-15T04:09:00.869Z,99.10
2019-06-15T04:10:00.841Z,98.72
2019-06-15T04:11:00.821Z,98.72
2019-06-15T04:12:00.786Z,99.10
2019-06-15T04:13:00.752Z,99.01
2019-06-15T04:14:00.691Z,99.99
2019-06-15T04:15:00.657Z,99.99
2019-06-15T04:16:00.632Z,99.99
2019-06-15T04:17:00.589Z,99.99
2019-06-15T04:18:00.561Z,99.99
2019-06-15T04:19:00.531Z,99.99
2019-06-15T04:20:00.510Z,99.99
2019-06-15T04:21:00.461Z,99.99
2019-06-15T04:22:00.432Z,99.99
2019-06-15T04:23:00.399Z,99.99
2019-06-15T04:24:00.369Z,99.99
2019-06-15T04:25:00.336Z,99.99
2019-06-15T04:26:00.306Z,99.99
2019-06-15T04:27:00.290Z,99.99
2019-06-15T04:28:00.237Z,99.99
2019-06-15T04:29:00.214Z,99.99
2019-06-15T04:30:00.200Z,99.99
2019-06-15T04:31:00.156Z,99.99
2019-06-15T04:32:00.143Z,99.99
2019-06-15T04:33:00.137Z,99.99
2019-06-15T04:34:00.090Z,99.99
2019-06-15T04:35:00.039Z,99.99
2019-06-15T04:36:00.028Z,99.99
2019-06-15T04:36:59.976Z,99.99
2019-06-15T04:37:59.938Z,99.99
2019-06-15T04:38:59.915Z,99.99
2019-06-15T04:39:59.908Z,99.99
2019-06-15T04:41:01.691Z,99.99
2019-06-15T04:41:59.885Z,99.99
2019-06-15T04:42:59.810Z,99.99
2019-06-15T04:43:59.745Z,99.99
2019-06-15T04:44:59.724Z,99.99
2019-06-15T04:45:59.681Z,99.99
2019-06-15T04:46:59.677Z,99.99
2019-06-15T04:47:59.618Z,99.99
2019-06-15T04:48:59.581Z,99.99
2019-06-15T04:49:59.543Z,99.99
2019-06-15T04:50:59.503Z,99.99
2019-06-15T04:51:59.479Z,99.99
2019-06-15T04:52:59.444Z,99.99
2019-06-15T04:53:59.431Z,99.99
2019-06-15T04:54:59.397Z,99.99
2019-06-15T04:55:59.362Z,99.99
2019-06-15T04:56:59.345Z,99.99
2019-06-15T04:57:59.318Z,99.99
2019-06-15T04:58:59.267Z,99.99
2019-06-15T04:59:59.233Z,99.99
2019-06-15T05:00:59.212Z,99.99
2019-06-15T05:01:59.215Z,99.99
2019-06-15T05:02:59.170Z,99.99
2019-06-15T05:03:59.127Z,99.99
2019-06-15T05:04:59.112Z,99.98
2019-06-15T05:05:59.077Z,99.99
2019-06-15T05:06:59.069Z,99.98
2019-06-15T05:07:59.029Z,99.78
2019-06-15T05:08:58.983Z,99.21
2019-06-15T05:09:58.930Z,99.64
2019-06-15T05:10:59.935Z,99.26
2019-06-15T05:11:58.886Z,99.99
2019-06-15T05:12:58.879Z,99.99
2019-06-15T05:13:58.829Z,99.99
2019-06-15T05:14:58.809Z,99.99
2019-06-15T05:15:58.740Z,99.99
2019-06-15T05:16:58.706Z,99.99
2019-06-15T05:17:58.683Z,99.99
2019-06-15T05:18:58.648Z,99.99
2019-06-15T05:19:58.845Z,99.99
2019-06-15T05:20:58.576Z,99.99
2019-06-15T05:21:58.541Z,99.99
2019-06-15T05:22:58.526Z,99.99
2019-06-15T05:23:58.485Z,99.99
2019-06-15T05:24:58.478Z,99.99
2019-06-15T05:25:58.430Z,99.99
2019-06-15T05:27:06.277Z,99.99
2019-06-15T05:27:58.364Z,99.99
2019-06-15T05:28:58.324Z,99.99
2019-06-15T05:29:58.300Z,99.99
2019-06-15T05:30:58.269Z,99.99
2019-06-15T05:31:58.272Z,99.99
2019-06-15T05:32:58.260Z,99.99
2019-06-15T05:33:58.212Z,99.99
2019-06-15T05:34:58.168Z,99.99
2019-06-15T05:35:58.129Z,99.99
2019-06-15T05:36:58.090Z,99.99
2019-06-15T05:37:58.071Z,99.99
2019-06-15T05:38:58.063Z,99.99
2019-06-15T05:39:58.061Z,99.99
2019-06-15T05:40:58.000Z,99.99
2019-06-15T05:41:57.948Z,99.99
2019-06-15T05:42:58.036Z,99.99
2019-06-15T05:43:57.913Z,99.99
2019-06-15T05:44:57.868Z,99.99
2019-06-15T05:45:57.919Z,99.99
2019-06-15T05:46:57.795Z,99.99
2019-06-15T05:47:57.889Z,99.99
2019-06-15T05:48:57.726Z,99.99
2019-06-15T05:49:57.691Z,99.99
2019-06-15T05:50:58.667Z,99.99
2019-06-15T05:51:57.642Z,99.99
2019-06-15T05:52:57.620Z,99.99
2019-06-15T05:53:57.614Z,99.99
2019-06-15T05:54:57.643Z,99.99
2019-06-15T05:55:57.510Z,99.99
2019-06-15T05:56:57.518Z,99.99
2019-06-15T05:57:57.460Z,99.99
2019-06-15T05:58:57.437Z,99.99
2019-06-15T05:59:57.499Z,99.99
2019-06-15T06:00:57.385Z,99.99
2019-06-15T06:01:57.356Z,99.99
2019-06-15T06:02:57.329Z,99.99
2019-06-15T06:03:57.335Z,99.99
2019-06-15T06:04:57.276Z,99.99
2019-06-15T06:05:57.238Z,99.99
2019-06-15T06:06:57.196Z,99.99
2019-06-15T06:07:57.178Z,99.99
2019-06-15T06:08:57.148Z,99.99
2019-06-15T06:09:57.124Z,99.99
2019-06-15T06:10:57.164Z,99.99
2019-06-15T06:11:57.078Z,99.99
2019-06-15T06:12:57.037Z,99.99
2019-06-15T06:13:57.017Z,99.99
2019-06-15T06:14:56.976Z,99.99
2019-06-15T06:15:57.058Z,99.99
2019-06-15T06:16:56.986Z,99.99
2019-06-15T06:17:56.919Z,99.99
2019-06-15T06:18:56.898Z,99.99
2019-06-15T06:19:56.851Z,99.99
2019-06-15T06:20:57.057Z,99.99
2019-06-15T06:21:58.343Z,99.66
2019-06-15T06:22:56.777Z,99.99
2019-06-15T06:23:56.725Z,99.99
2019-06-15T06:24:56.703Z,99.99
2019-06-15T06:25:56.682Z,99.99
2019-06-15T06:26:56.696Z,99.99
2019-06-15T06:27:56.645Z,99.99
2019-06-15T06:28:57.568Z,99.99
2019-06-15T06:29:56.601Z,99.99
2019-06-15T06:30:56.544Z,99.99
2019-06-15T06:31:56.530Z,99.99
2019-06-15T06:32:56.484Z,99.99
2019-06-15T06:33:56.463Z,99.99
2019-06-15T06:34:56.443Z,99.99
2019-06-15T06:35:56.473Z,99.99
2019-06-15T06:36:56.401Z,99.99
2019-06-15T06:37:56.365Z,99.99
2019-06-15T06:38:56.371Z,99.99
2019-06-15T06:39:56.345Z,99.99
2019-06-15T06:40:56.327Z,99.99
2019-06-15T06:41:56.260Z,99.99
2019-06-15T06:42:56.311Z,99.99
2019-06-15T06:43:56.257Z,99.99
2019-06-15T06:44:56.204Z,99.99
2019-06-15T06:45:56.179Z,99.99
2019-06-15T06:46:56.155Z,99.99
2019-06-15T06:47:56.099Z,99.99
2019-06-15T06:48:56.131Z,99.99
2019-06-15T06:49:56.057Z,99.99
2019-06-15T06:50:56.033Z,99.99
2019-06-15T06:51:56.010Z,99.99
2019-06-15T06:52:55.978Z,99.75
2019-06-15T06:53:55.955Z,99.99
2019-06-15T06:54:55.924Z,99.37
2019-06-15T06:55:55.903Z,96.98
2019-06-15T06:56:55.876Z,93.62
2019-06-15T06:57:57.233Z,92.14
2019-06-15T06:58:55.875Z,89.16
2019-06-15T06:59:55.800Z,85.84
2019-06-15T07:00:55.806Z,85.04
2019-06-15T07:01:55.757Z,81.99
2019-06-15T07:02:55.802Z,80.27
2019-06-15T07:03:55.721Z,76.45
2019-06-15T07:04:55.695Z,77.57
2019-06-15T07:05:55.664Z,75.02
2019-06-15T07:06:55.638Z,77.04
2019-06-15T07:07:55.622Z,75.02
2019-06-15T07:08:55.588Z,77.64
2019-06-15T07:09:55.560Z,72.84
2019-06-15T07:10:55.539Z,71.50
2019-06-15T07:11:55.525Z,71.47
2019-06-15T07:12:55.494Z,70.98
2019-06-15T07:13:55.471Z,70.68
2019-06-15T07:14:55.443Z,71.04
2019-06-15T07:15:55.426Z,71.73
2019-06-15T07:16:55.398Z,74.43
2019-06-15T07:17:55.376Z,71.37
2019-06-15T07:18:55.360Z,68.56
2019-06-15T07:19:55.368Z,67.45
2019-06-15T07:20:55.326Z,70.75
2019-06-15T07:21:55.319Z,70.97
2019-06-15T07:22:55.325Z,70.45
2019-06-15T07:23:55.298Z,69.57
2019-06-15T07:24:55.264Z,70.25
2019-06-15T07:25:55.233Z,72.56
2019-06-15T07:26:55.250Z,67.05
2019-06-15T07:28:07.478Z,70.02
2019-06-15T07:28:55.163Z,68.59
2019-06-15T07:29:55.165Z,67.29
2019-06-15T07:30:55.175Z,68.46
2019-06-15T07:31:55.108Z,68.85
2019-06-15T07:32:55.127Z,69.79
2019-06-15T07:33:55.071Z,67.32
2019-06-15T07:34:55.040Z,66.56
2019-06-15T07:35:55.034Z,67.15
2019-06-15T07:36:54.987Z,66.76
2019-06-15T07:37:54.977Z,67.90
2019-06-15T07:38:54.958Z,64.34
2019-06-15T07:39:54.933Z,64.25
2019-06-15T07:40:54.920Z,66.47
2019-06-15T07:41:54.890Z,66.17
2019-06-15T07:42:54.868Z,67.68
2019-06-15T07:43:54.839Z,70.61
2019-06-15T07:44:54.819Z,67.29
2019-06-15T07:45:54.804Z,65.85
2019-06-15T07:46:54.789Z,66.73
2019-06-15T07:47:54.768Z,66.99
2019-06-15T07:48:54.735Z,68.35
2019-06-15T07:49:54.729Z,68.29
2019-06-15T07:50:54.703Z,64.09
2019-06-15T07:51:54.753Z,64.06
2019-06-15T07:52:54.737Z,63.27
2019-06-15T07:53:54.689Z,61.57
2019-06-15T07:54:54.658Z,60.22
2019-06-15T07:55:54.596Z,58.45
2019-06-15T07:56:54.596Z,56.59
2019-06-15T07:57:54.559Z,57.60
2019-06-15T07:58:54.553Z,58.78
2019-06-15T07:59:54.556Z,59.47
2019-06-15T08:00:54.548Z,59.30
2019-06-15T08:01:54.490Z,58.00
2019-06-15T08:02:54.475Z,58.81
2019-06-15T08:03:54.460Z,56.52
2019-06-15T08:04:54.424Z,57.14
2019-06-15T08:05:54.428Z,56.82
2019-06-15T08:06:54.366Z,56.42
2019-06-15T08:07:54.354Z,56.57
2019-06-15T08:08:54.323Z,58.04
2019-06-15T08:09:54.341Z,57.15
2019-06-15T08:10:54.295Z,58.75
2019-06-15T08:11:54.277Z,58.71
2019-06-15T08:12:54.255Z,56.65
2019-06-15T08:13:54.263Z,56.87
2019-06-15T08:14:54.220Z,55.27
2019-06-15T08:15:54.201Z,55.89
2019-06-15T08:16:54.196Z,54.54
2019-06-15T08:17:54.170Z,53.97
2019-06-15T08:18:54.143Z,55.51
2019-06-15T08:19:54.133Z,54.14
2019-06-15T08:20:54.098Z,54.33
2019-06-15T08:21:54.089Z,55.74
2019-06-15T08:22:54.086Z,53.53
2019-06-15T08:23:54.074Z,53.95
2019-06-15T08:24:54.046Z,55.33
2019-06-15T08:25:54.030Z,53.53
2019-06-15T08:26:54.005Z,54.22
2019-06-15T08:27:53.979Z,55.47
2019-06-15T08:28:53.966Z,56.26
2019-06-15T08:29:53.951Z,54.22
2019-06-15T08:30:53.956Z,55.57
2019-06-15T08:31:53.928Z,54.71
2019-06-15T08:32:53.917Z,53.48
2019-06-15T08:33:53.861Z,54.27
2019-06-15T08:34:53.842Z,54.46
2019-06-15T08:35:53.825Z,55.73
2019-06-15T08:36:53.810Z,55.56
2019-06-15T08:37:53.797Z,55.88
2019-06-15T08:38:53.789Z,55.88
2019-06-15T08:39:53.750Z,59.73
2019-06-15T08:40:53.738Z,57.06
2019-06-15T08:41:56.797Z,56.01
2019-06-15T08:42:53.712Z,56.13
2019-06-15T08:43:53.684Z,54.39
2019-06-15T08:44:53.658Z,51.89
2019-06-15T08:45:53.652Z,50.12
2019-06-15T08:46:53.679Z,50.68
2019-06-15T08:47:53.621Z,51.12
2019-06-15T08:48:53.614Z,52.99
2019-06-15T08:49:53.592Z,52.11
2019-06-15T08:50:53.589Z,50.88
2019-06-15T08:51:53.541Z,50.78
2019-06-15T08:52:53.529Z,51.59
2019-06-15T08:53:53.514Z,52.99
2019-06-15T08:54:53.498Z,52.80
2019-06-15T08:55:53.547Z,53.29
2019-06-15T08:56:53.446Z,51.76
2019-06-15T08:57:54.424Z,52.35
2019-06-15T08:58:55.806Z,55.30
2019-06-15T08:59:53.469Z,52.18
2019-06-15T09:00:53.375Z,51.79
2019-06-15T09:01:53.360Z,51.59
2019-06-15T09:02:53.343Z,53.14
2019-06-15T09:03:53.329Z,52.89
2019-06-15T09:04:53.306Z,54.33
2019-06-15T09:05:53.284Z,56.20
2019-06-15T09:06:53.278Z,55.54
2019-06-15T09:07:53.249Z,54.56
2019-06-15T09:08:53.245Z,56.84
2019-06-15T09:09:53.215Z,54.54
2019-06-15T09:10:53.221Z,54.54
2019-06-15T09:11:53.185Z,53.33
2019-06-15T09:12:53.186Z,55.18
2019-06-15T09:13:53.147Z,55.86
2019-06-15T09:14:53.197Z,54.10
2019-06-15T09:15:53.147Z,51.54
2019-06-15T09:16:53.132Z,52.11
2019-06-15T09:17:53.149Z,53.16
2019-06-15T09:18:53.070Z,52.11
2019-06-15T09:19:53.046Z,53.48
2019-06-15T09:20:53.077Z,52.59
2019-06-15T09:21:53.032Z,54.17
2019-06-15T09:22:53.011Z,55.27
2019-06-15T09:23:53.000Z,55.24
2019-06-15T09:24:53.075Z,55.32
2019-06-15T09:25:52.987Z,55.05
2019-06-15T09:26:52.974Z,52.92
2019-06-15T09:27:52.889Z,55.00
2019-06-15T09:28:52.903Z,54.29
2019-06-15T09:29:52.908Z,55.30
2019-06-15T09:30:52.847Z,56.01
2019-06-15T09:31:52.831Z,51.98
2019-06-15T09:32:52.799Z,52.08
2019-06-15T09:33:52.944Z,53.04
2019-06-15T09:34:52.772Z,52.13
2019-06-15T09:35:52.772Z,52.01
2019-06-15T09:36:52.748Z,53.26
2019-06-15T09:37:52.742Z,53.58
2019-06-15T09:38:52.710Z,52.03
2019-06-15T09:39:52.745Z,53.28
2019-06-15T09:40:52.911Z,53.77
2019-06-15T09:41:52.772Z,52.30
2019-06-15T09:42:52.696Z,52.89
2019-06-15T09:43:52.678Z,54.19
2019-06-15T09:44:52.606Z,53.90
2019-06-15T09:45:52.589Z,51.84
2019-06-15T09:46:52.573Z,51.74
2019-06-15T09:47:52.600Z,54.17
2019-06-15T09:48:52.641Z,54.33
2019-06-15T09:49:53.440Z,56.57
2019-06-15T09:50:52.562Z,55.71
2019-06-15T09:51:52.550Z,55.22
2019-06-15T09:52:52.440Z,53.03
2019-06-15T09:53:52.487Z,56.62
2019-06-15T09:54:52.455Z,55.24
2019-06-15T09:55:52.490Z,55.81
2019-06-15T09:56:52.422Z,54.58
2019-06-15T09:57:52.400Z,55.39
2019-06-15T09:58:52.327Z,56.07
2019-06-15T09:59:52.335Z,56.57
2019-06-15T10:00:52.328Z,56.17
2019-06-15T10:01:52.297Z,57.54
2019-06-15T10:02:52.255Z,56.67
2019-06-15T10:03:52.241Z,56.98
2019-06-15T10:04:52.209Z,55.00
2019-06-15T10:05:52.179Z,56.57
2019-06-15T10:06:52.210Z,55.39
2019-06-15T10:07:52.152Z,57.81
2019-06-15T10:08:52.135Z,56.54
2019-06-15T10:09:52.118Z,55.92
2019-06-15T10:10:52.133Z,56.61
2019-06-15T10:11:52.102Z,57.88
2019-06-15T10:12:52.062Z,57.78
2019-06-15T10:13:52.168Z,58.86
2019-06-15T10:14:52.114Z,56.41
2019-06-15T10:15:52.109Z,56.51
2019-06-15T10:16:51.990Z,57.22
2019-06-15T10:17:51.969Z,55.53
2019-06-15T10:18:51.940Z,56.56
2019-06-15T10:19:51.920Z,57.63
2019-06-15T10:20:51.964Z,58.17
2019-06-15T10:21:51.918Z,57.98
2019-06-15T10:22:51.878Z,56.73
2019-06-15T10:23:51.840Z,55.88
2019-06-15T10:24:51.851Z,53.47
2019-06-15T10:25:54.178Z,54.06
2019-06-15T10:26:51.790Z,55.51
2019-06-15T10:27:51.780Z,55.31
2019-06-15T10:28:51.750Z,55.51
2019-06-15T10:29:51.732Z,54.94
2019-06-15T10:30:51.694Z,54.72
2019-06-15T10:31:51.691Z,56.12
2019-06-15T10:32:51.667Z,56.15
2019-06-15T10:33:51.654Z,55.98
2019-06-15T10:34:51.650Z,53.72
2019-06-15T10:35:51.655Z,54.48
2019-06-15T10:36:51.642Z,58.50
2019-06-15T10:37:51.577Z,56.90
2019-06-15T10:38:51.569Z,55.95
2019-06-15T10:39:51.634Z,57.52
2019-06-15T10:40:51.509Z,55.33
2019-06-15T10:41:51.523Z,56.61
2019-06-15T10:42:51.460Z,57.07
2019-06-15T10:43:51.440Z,55.21
2019-06-15T10:44:51.778Z,56.51
2019-06-15T10:45:51.411Z,56.75
2019-06-15T10:46:51.375Z,57.76
2019-06-15T10:47:51.490Z,57.04
2019-06-15T10:48:52.057Z,57.76
2019-06-15T10:49:51.409Z,60.52
2019-06-15T10:50:51.415Z,58.30
2019-06-15T10:51:51.342Z,57.71
2019-06-15T10:52:51.264Z,55.33
2019-06-15T10:53:51.248Z,56.41
2019-06-15T10:54:51.242Z,54.46
2019-06-15T10:55:51.204Z,55.21
2019-06-15T10:56:51.205Z,55.31
2019-06-15T10:57:51.253Z,56.19
2019-06-15T10:58:51.178Z,56.68
2019-06-15T10:59:57.351Z,58.86
2019-06-15T11:00:51.174Z,56.73
2019-06-15T11:01:51.184Z,55.04
2019-06-15T11:02:51.137Z,55.16
2019-06-15T11:03:51.072Z,55.36
2019-06-15T11:04:51.033Z,56.05
2019-06-15T11:05:52.082Z,57.06
2019-06-15T11:06:50.991Z,55.49
2019-06-15T11:07:50.968Z,52.64
2019-06-15T11:08:50.938Z,54.48
2019-06-15T11:09:50.921Z,53.86
2019-06-15T11:10:50.955Z,55.24
2019-06-15T11:11:50.941Z,55.14
2019-06-15T11:12:50.872Z,59.41
2019-06-15T11:13:50.854Z,55.29
2019-06-15T11:14:50.820Z,55.66
2019-06-15T11:15:50.806Z,54.16
2019-06-15T11:16:50.787Z,55.85
2019-06-15T11:17:50.809Z,55.46
2019-06-15T11:18:50.775Z,54.38
2019-06-15T11:19:50.711Z,55.33
2019-06-15T11:20:50.702Z,53.55
2019-06-15T11:21:50.687Z,55.53
2019-06-15T11:22:50.673Z,55.67
2019-06-15T11:23:50.676Z,56.48
2019-06-15T11:24:50.617Z,57.95
2019-06-15T11:25:50.596Z,58.16
2019-06-15T11:26:50.669Z,57.54
2019-06-15T11:27:50.563Z,59.67
2019-06-15T11:28:50.583Z,59.44
2019-06-15T11:29:50.518Z,61.74
2019-06-15T11:30:50.517Z,59.18
2019-06-15T11:31:50.516Z,58.69
2019-06-15T11:32:50.878Z,57.91
2019-06-15T11:33:50.438Z,56.86
2019-06-15T11:34:50.475Z,57.97
2019-06-15T11:35:50.396Z,57.92
2019-06-15T11:36:50.436Z,56.13
2019-06-15T11:37:50.371Z,56.62
2019-06-15T11:38:50.353Z,57.89
2019-06-15T11:39:50.366Z,57.84
2019-06-15T11:40:50.311Z,57.57
2019-06-15T11:41:50.287Z,55.96
2019-06-15T11:42:50.322Z,57.93
2019-06-15T11:43:50.259Z,57.68
2019-06-15T11:44:50.244Z,59.61
2019-06-15T11:45:50.352Z,59.87
2019-06-15T11:46:50.196Z,60.62
2019-06-15T11:47:50.194Z,61.57
2019-06-15T11:48:50.148Z,62.12
2019-06-15T11:49:50.128Z,64.26
2019-06-15T11:50:50.104Z,62.60
2019-06-15T11:51:50.083Z,63.29
2019-06-15T11:52:50.056Z,62.28
2019-06-15T11:53:50.034Z,61.93
2019-06-15T11:54:50.020Z,62.25
2019-06-15T11:55:49.985Z,63.45
2019-06-15T11:56:49.974Z,62.41
2019-06-15T11:57:49.958Z,60.78
2019-06-15T11:58:49.931Z,59.34
2019-06-15T11:59:49.906Z,57.52
2019-06-15T12:00:49.905Z,57.91
2019-06-15T12:01:49.880Z,57.81
2019-06-15T12:02:49.856Z,57.06
2019-06-15T12:03:49.853Z,57.77
2019-06-15T12:04:58.124Z,59.07
2019-06-15T12:05:49.791Z,57.11
2019-06-15T12:06:49.790Z,55.86
2019-06-15T12:07:49.771Z,56.12
2019-06-15T12:08:49.768Z,58.63
2019-06-15T12:09:49.725Z,58.34
2019-06-15T12:10:49.709Z,58.89
2019-06-15T12:11:49.668Z,56.76
2019-06-15T12:12:49.654Z,56.18
2019-06-15T12:13:49.613Z,56.79
2019-06-15T12:14:49.607Z,55.52
2019-06-15T12:15:49.563Z,54.74
2019-06-15T12:16:49.566Z,55.94
2019-06-15T12:17:49.525Z,54.79
2019-06-15T12:18:49.502Z,55.79
2019-06-15T12:19:49.522Z,57.64
2019-06-15T12:20:49.495Z,56.51
2019-06-15T12:21:49.448Z,56.51
2019-06-15T12:22:49.441Z,56.10
2019-06-15T12:23:49.416Z,58.31
2019-06-15T12:24:49.393Z,58.70
2019-06-15T12:25:49.426Z,57.46
2019-06-15T12:26:49.361Z,58.80
2019-06-15T12:27:49.403Z,59.22
2019-06-15T12:28:49.402Z,60.13
2019-06-15T12:29:49.337Z,57.52
2019-06-15T12:30:49.293Z,59.30
2019-06-15T12:31:49.265Z,56.60
2019-06-15T12:32:49.217Z,54.30
2019-06-15T12:33:49.279Z,55.26
2019-06-15T12:34:49.286Z,56.16
2019-06-15T12:35:49.164Z,54.44
2019-06-15T12:36:49.153Z,55.35
2019-06-15T12:37:49.161Z,56.85
2019-06-15T12:38:49.127Z,53.66
2019-06-15T12:39:49.167Z,55.49
2019-06-15T12:40:49.110Z,55.20
2019-06-15T12:41:49.106Z,55.42
2019-06-15T12:42:49.044Z,54.93
2019-06-15T12:43:49.009Z,56.25
2019-06-15T12:44:48.991Z,56.45
2019-06-15T12:45:48.964Z,56.40
2019-06-15T12:46:48.940Z,56.79
2019-06-15T12:47:48.921Z,54.93
2019-06-15T12:48:48.892Z,54.98
2019-06-15T12:49:48.890Z,56.64
2019-06-15T12:50:48.874Z,56.02
2019-06-15T12:51:48.867Z,56.75